sensor_id;sensor_type;location;lat;lon;timestamp;temperature;humidity
17938;DHT22;16051;53.024;8.630;2022-10-03T00:00:08;12.80;99.90
17938;DHT22;16051;53.024;8.630;2022-10-03T00:04:20;12.70;99.90
17938;DHT22;16051;53.024;8.630;2022-10-03T00:08:52;12.70;99.90
17938;DHT22;16051;53.024;8.630;2022-10-03T00:13:19;12.70;99.90
17938;DHT22;16051;53.024;8.630;2022-10-03T00:17:29;12.60;99.90
17938;DHT22;16051;53.024;8.630;2022-10-03T00:21:55;12.60;99.90
17938;DHT22;16051;53.024;8.630;2022-10-03T00:26:17;12.50;99.90
17938;DHT22;16051;53.024;8.630;2022-10-03T00:30:57;12.50;99.90
17938;DHT22;16051;53.024;8.630;2022-10-03T00:35:19;12.50;99.90
17938;DHT22;16051;53.024;8.630;2022-10-03T00:39:44;12.40;99.90
17938;DHT22;16051;53.024;8.630;2022-10-03T00:44:17;12.40;99.90
17938;DHT22;16051;53.024;8.630;2022-10-03T00:53:47;12.30;99.90
17938;DHT22;16051;53.024;8.630;2022-10-03T00:58:21;12.20;99.90
17938;DHT22;16051;53.024;8.630;2022-10-03T01:02:56;12.20;99.90
17938;DHT22;16051;53.024;8.630;2022-10-03T01:07:24;12.20;99.90
17938;DHT22;16051;53.024;8.630;2022-10-03T01:11:47;12.10;99.90
17938;DHT22;16051;53.024;8.630;2022-10-03T01:16:09;12.00;99.90
17938;DHT22;16051;53.024;8.630;2022-10-03T01:20:30;12.10;99.90
17938;DHT22;16051;53.024;8.630;2022-10-03T01:24:52;12.10;99.90
17938;DHT22;16051;53.024;8.630;2022-10-03T01:29:04;12.10;99.90
17938;DHT22;16051;53.024;8.630;2022-10-03T01:33:38;12.10;99.90
17938;DHT22;16051;53.024;8.630;2022-10-03T01:37:49;12.10;99.90
17938;DHT22;16051;53.024;8.630;2022-10-03T01:42:04;12.10;99.90
17938;DHT22;16051;53.024;8.630;2022-10-03T01:46:16;12.10;99.90
17938;DHT22;16051;53.024;8.630;2022-10-03T01:50:29;12.10;99.90
17938;DHT22;16051;53.024;8.630;2022-10-03T01:54:40;12.10;99.90
17938;DHT22;16051;53.024;8.630;2022-10-03T01:58:55;12.10;99.90
17938;DHT22;16051;53.024;8.630;2022-10-03T02:03:10;12.00;99.90
17938;DHT22;16051;53.024;8.630;2022-10-03T02:07:24;12.00;99.90
17938;DHT22;16051;53.024;8.630;2022-10-03T02:11:37;12.00;99.90
17938;DHT22;16051;53.024;8.630;2022-10-03T02:16:00;11.90;99.90
17938;DHT22;16051;53.024;8.630;2022-10-03T02:20:18;11.90;99.90
17938;DHT22;16051;53.024;8.630;2022-10-03T02:24:39;11.90;99.90
17938;DHT22;16051;53.024;8.630;2022-10-03T02:29:01;11.90;99.90
17938;DHT22;16051;53.024;8.630;2022-10-03T02:33:45;11.90;99.90
17938;DHT22;16051;53.024;8.630;2022-10-03T02:58:16;11.80;99.90
17938;DHT22;16051;53.024;8.630;2022-10-03T03:07:43;11.80;99.90
17938;DHT22;16051;53.024;8.630;2022-10-03T03:12:24;11.80;99.90
17938;DHT22;16051;53.024;8.630;2022-10-03T03:17:00;11.80;99.90
17938;DHT22;16051;53.024;8.630;2022-10-03T03:21:22;11.80;99.90
17938;DHT22;16051;53.024;8.630;2022-10-03T03:25:44;11.70;99.90
17938;DHT22;16051;53.024;8.630;2022-10-03T03:30:05;11.70;99.90
17938;DHT22;16051;53.024;8.630;2022-10-03T03:34:16;11.60;99.90
17938;DHT22;16051;53.024;8.630;2022-10-03T03:38:46;11.60;99.90
17938;DHT22;16051;53.024;8.630;2022-10-03T03:43:38;11.60;99.90
17938;DHT22;16051;53.024;8.630;2022-10-03T03:48:04;11.60;99.90
17938;DHT22;16051;53.024;8.630;2022-10-03T03:52:38;11.60;99.90
17938;DHT22;16051;53.024;8.630;2022-10-03T03:57:35;11.50;99.90
17938;DHT22;16051;53.024;8.630;2022-10-03T04:02:02;11.50;99.90
17938;DHT22;16051;53.024;8.630;2022-10-03T04:06:25;11.50;99.90
17938;DHT22;16051;53.024;8.630;2022-10-03T04:10:41;11.50;99.90
17938;DHT22;16051;53.024;8.630;2022-10-03T04:15:11;11.50;99.90
17938;DHT22;16051;53.024;8.630;2022-10-03T04:19:49;11.50;99.90
17938;DHT22;16051;53.024;8.630;2022-10-03T04:29:24;11.60;99.90
17938;DHT22;16051;53.024;8.630;2022-10-03T04:33:49;11.70;99.90
17938;DHT22;16051;53.024;8.630;2022-10-03T04:38:08;11.70;99.90
17938;DHT22;16051;53.024;8.630;2022-10-03T04:42:26;11.60;99.90
17938;DHT22;16051;53.024;8.630;2022-10-03T04:46:46;11.70;99.90
17938;DHT22;16051;53.024;8.630;2022-10-03T04:51:03;11.70;99.90
17938;DHT22;16051;53.024;8.630;2022-10-03T04:55:22;11.70;99.90
17938;DHT22;16051;53.024;8.630;2022-10-03T04:59:44;11.70;99.90
17938;DHT22;16051;53.024;8.630;2022-10-03T05:04:05;11.70;99.90
17938;DHT22;16051;53.024;8.630;2022-10-03T05:08:27;11.70;99.90
17938;DHT22;16051;53.024;8.630;2022-10-03T05:12:42;11.70;99.90
17938;DHT22;16051;53.024;8.630;2022-10-03T05:17:01;11.70;99.90
17938;DHT22;16051;53.024;8.630;2022-10-03T05:21:38;11.60;99.90
17938;DHT22;16051;53.024;8.630;2022-10-03T05:25:48;11.60;99.90
17938;DHT22;16051;53.024;8.630;2022-10-03T05:30:07;11.60;99.90
17938;DHT22;16051;53.024;8.630;2022-10-03T05:34:33;11.50;99.90
17938;DHT22;16051;53.024;8.630;2022-10-03T05:39:25;11.50;99.90
17938;DHT22;16051;53.024;8.630;2022-10-03T05:43:44;11.50;99.90
17938;DHT22;16051;53.024;8.630;2022-10-03T05:47:53;11.50;99.90
17938;DHT22;16051;53.024;8.630;2022-10-03T05:52:31;11.50;99.90
17938;DHT22;16051;53.024;8.630;2022-10-03T05:57:20;11.50;99.90
17938;DHT22;16051;53.024;8.630;2022-10-03T06:02:05;11.50;99.90
17938;DHT22;16051;53.024;8.630;2022-10-03T06:06:50;11.50;99.90
17938;DHT22;16051;53.024;8.630;2022-10-03T06:11:14;11.50;99.90
17938;DHT22;16051;53.024;8.630;2022-10-03T06:15:46;11.50;99.90
17938;DHT22;16051;53.024;8.630;2022-10-03T06:19:58;11.50;99.90
17938;DHT22;16051;53.024;8.630;2022-10-03T06:29:51;11.70;99.90
17938;DHT22;16051;53.024;8.630;2022-10-03T06:34:41;11.80;99.90
17938;DHT22;16051;53.024;8.630;2022-10-03T06:49:06;12.30;99.90
17938;DHT22;16051;53.024;8.630;2022-10-03T06:54:01;12.40;99.90
17938;DHT22;16051;53.024;8.630;2022-10-03T07:03:28;12.80;99.90
17938;DHT22;16051;53.024;8.630;2022-10-03T07:08:32;12.90;99.90
17938;DHT22;16051;53.024;8.630;2022-10-03T07:13:15;13.00;99.90
17938;DHT22;16051;53.024;8.630;2022-10-03T07:17:40;13.10;99.90
17938;DHT22;16051;53.024;8.630;2022-10-03T07:22:20;13.10;99.90
17938;DHT22;16051;53.024;8.630;2022-10-03T07:27:04;13.20;99.90
17938;DHT22;16051;53.024;8.630;2022-10-03T07:31:45;13.30;99.90
17938;DHT22;16051;53.024;8.630;2022-10-03T07:36:29;13.30;99.90
17938;DHT22;16051;53.024;8.630;2022-10-03T07:45:44;13.30;99.90
17938;DHT22;16051;53.024;8.630;2022-10-03T07:50:35;13.50;99.90
17938;DHT22;16051;53.024;8.630;2022-10-03T07:55:18;13.60;99.90
17938;DHT22;16051;53.024;8.630;2022-10-03T07:59:58;14.10;99.90
17938;DHT22;16051;53.024;8.630;2022-10-03T08:04:45;14.60;99.90
17938;DHT22;16051;53.024;8.630;2022-10-03T08:14:25;14.50;99.90
17938;DHT22;16051;53.024;8.630;2022-10-03T08:19:10;14.50;99.90
17938;DHT22;16051;53.024;8.630;2022-10-03T08:28:43;14.30;99.90
17938;DHT22;16051;53.024;8.630;2022-10-03T08:33:35;14.30;99.90
17938;DHT22;16051;53.024;8.630;2022-10-03T08:43:21;14.20;99.90
17938;DHT22;16051;53.024;8.630;2022-10-03T08:53:32;14.20;99.90
17938;DHT22;16051;53.024;8.630;2022-10-03T09:08:14;14.30;99.90
17938;DHT22;16051;53.024;8.630;2022-10-03T09:22:47;14.50;99.90
17938;DHT22;16051;53.024;8.630;2022-10-03T09:27:22;14.70;99.90
17938;DHT22;16051;53.024;8.630;2022-10-03T09:32:01;14.80;99.90
17938;DHT22;16051;53.024;8.630;2022-10-03T09:42:15;15.30;99.90
17938;DHT22;16051;53.024;8.630;2022-10-03T09:51:58;16.00;99.90
17938;DHT22;16051;53.024;8.630;2022-10-03T09:56:51;16.40;99.90
17938;DHT22;16051;53.024;8.630;2022-10-03T10:01:18;17.00;99.90
17938;DHT22;16051;53.024;8.630;2022-10-03T10:10:50;18.10;99.90
17938;DHT22;16051;53.024;8.630;2022-10-03T10:20:38;19.20;99.90
17938;DHT22;16051;53.024;8.630;2022-10-03T10:30:19;20.70;99.90
17938;DHT22;16051;53.024;8.630;2022-10-03T10:39:41;21.60;99.90
17938;DHT22;16051;53.024;8.630;2022-10-03T11:05:18;21.30;99.90
17938;DHT22;16051;53.024;8.630;2022-10-03T11:20:30;21.00;99.90
17938;DHT22;16051;53.024;8.630;2022-10-03T11:30:21;20.70;99.90
17938;DHT22;16051;53.024;8.630;2022-10-03T11:40:04;21.70;99.90
17938;DHT22;16051;53.024;8.630;2022-10-03T11:44:23;21.40;99.90
17938;DHT22;16051;53.024;8.630;2022-10-03T11:48:37;21.10;99.90
17938;DHT22;16051;53.024;8.630;2022-10-03T11:52:57;21.60;99.90
17938;DHT22;16051;53.024;8.630;2022-10-03T11:57:28;21.20;99.90
17938;DHT22;16051;53.024;8.630;2022-10-03T12:01:43;21.00;99.90
17938;DHT22;16051;53.024;8.630;2022-10-03T12:06:01;21.00;99.90
17938;DHT22;16051;53.024;8.630;2022-10-03T12:10:44;21.00;99.90
17938;DHT22;16051;53.024;8.630;2022-10-03T12:14:57;21.10;99.90
17938;DHT22;16051;53.024;8.630;2022-10-03T12:19:17;21.20;99.90
17938;DHT22;16051;53.024;8.630;2022-10-03T12:23:49;21.30;99.90
17938;DHT22;16051;53.024;8.630;2022-10-03T12:28:14;21.60;99.90
17938;DHT22;16051;53.024;8.630;2022-10-03T12:32:36;22.20;99.90
17938;DHT22;16051;53.024;8.630;2022-10-03T12:36:50;22.60;99.90
17938;DHT22;16051;53.024;8.630;2022-10-03T12:41:10;22.20;99.90
17938;DHT22;16051;53.024;8.630;2022-10-03T12:50:36;21.60;99.90
17938;DHT22;16051;53.024;8.630;2022-10-03T12:59:34;23.50;99.90
17938;DHT22;16051;53.024;8.630;2022-10-03T13:03:56;21.70;99.90
17938;DHT22;16051;53.024;8.630;2022-10-03T13:08:31;21.20;99.90
17938;DHT22;16051;53.024;8.630;2022-10-03T13:13:10;22.20;99.90
17938;DHT22;16051;53.024;8.630;2022-10-03T13:17:34;26.90;96.80
17938;DHT22;16051;53.024;8.630;2022-10-03T13:22:02;26.20;96.40
17938;DHT22;16051;53.024;8.630;2022-10-03T13:26:22;26.50;95.20
17938;DHT22;16051;53.024;8.630;2022-10-03T13:30:46;27.00;92.40
17938;DHT22;16051;53.024;8.630;2022-10-03T13:40:09;26.10;91.50
17938;DHT22;16051;53.024;8.630;2022-10-03T13:44:36;23.90;93.60
17938;DHT22;16051;53.024;8.630;2022-10-03T13:48:52;23.10;95.60
17938;DHT22;16051;53.024;8.630;2022-10-03T13:53:04;22.60;97.40
17938;DHT22;16051;53.024;8.630;2022-10-03T13:57:25;22.20;97.60
17938;DHT22;16051;53.024;8.630;2022-10-03T14:01:42;22.00;99.00
17938;DHT22;16051;53.024;8.630;2022-10-03T14:06:05;21.70;99.20
17938;DHT22;16051;53.024;8.630;2022-10-03T14:10:28;21.30;99.60
17938;DHT22;16051;53.024;8.630;2022-10-03T14:15:08;20.80;99.90
17938;DHT22;16051;53.024;8.630;2022-10-03T14:20:00;20.40;99.90
17938;DHT22;16051;53.024;8.630;2022-10-03T14:24:33;20.70;99.90
17938;DHT22;16051;53.024;8.630;2022-10-03T14:28:59;20.80;99.90
17938;DHT22;16051;53.024;8.630;2022-10-03T14:33:20;20.60;99.90
17938;DHT22;16051;53.024;8.630;2022-10-03T14:37:47;20.50;99.90
17938;DHT22;16051;53.024;8.630;2022-10-03T14:46:56;20.50;99.90
17938;DHT22;16051;53.024;8.630;2022-10-03T14:51:20;20.40;99.90
17938;DHT22;16051;53.024;8.630;2022-10-03T14:55:45;20.20;99.90
17938;DHT22;16051;53.024;8.630;2022-10-03T15:00:03;20.10;99.90
17938;DHT22;16051;53.024;8.630;2022-10-03T15:04:41;20.40;99.90
17938;DHT22;16051;53.024;8.630;2022-10-03T15:08:55;20.10;99.90
17938;DHT22;16051;53.024;8.630;2022-10-03T15:13:10;20.00;99.90
17938;DHT22;16051;53.024;8.630;2022-10-03T15:17:25;20.00;99.90
17938;DHT22;16051;53.024;8.630;2022-10-03T15:21:52;19.90;99.90
17938;DHT22;16051;53.024;8.630;2022-10-03T15:26:03;19.70;99.90
17938;DHT22;16051;53.024;8.630;2022-10-03T15:30:24;19.60;99.90
17938;DHT22;16051;53.024;8.630;2022-10-03T15:34:45;19.60;99.90
17938;DHT22;16051;53.024;8.630;2022-10-03T15:39:01;19.70;99.90
17938;DHT22;16051;53.024;8.630;2022-10-03T15:43:40;19.60;99.90
17938;DHT22;16051;53.024;8.630;2022-10-03T15:48:08;19.60;99.90
17938;DHT22;16051;53.024;8.630;2022-10-03T15:52:25;19.30;99.90
17938;DHT22;16051;53.024;8.630;2022-10-03T15:56:38;19.30;99.90
17938;DHT22;16051;53.024;8.630;2022-10-03T16:00:48;19.20;99.90
17938;DHT22;16051;53.024;8.630;2022-10-03T16:05:29;19.10;99.90
17938;DHT22;16051;53.024;8.630;2022-10-03T16:09:45;19.00;99.90
17938;DHT22;16051;53.024;8.630;2022-10-03T16:14:20;18.90;99.90
17938;DHT22;16051;53.024;8.630;2022-10-03T16:18:52;18.70;99.90
17938;DHT22;16051;53.024;8.630;2022-10-03T16:23:12;18.50;99.90
17938;DHT22;16051;53.024;8.630;2022-10-03T16:27:32;18.40;99.90
17938;DHT22;16051;53.024;8.630;2022-10-03T16:31:50;18.20;99.90
17938;DHT22;16051;53.024;8.630;2022-10-03T16:35:57;18.10;99.90
17938;DHT22;16051;53.024;8.630;2022-10-03T16:40:06;17.90;99.90
17938;DHT22;16051;53.024;8.630;2022-10-03T16:44:19;17.90;99.90
17938;DHT22;16051;53.024;8.630;2022-10-03T16:48:27;17.70;99.90
17938;DHT22;16051;53.024;8.630;2022-10-03T16:53:07;17.60;99.90
17938;DHT22;16051;53.024;8.630;2022-10-03T16:57:14;17.30;99.90
17938;DHT22;16051;53.024;8.630;2022-10-03T17:01:29;17.20;99.90
17938;DHT22;16051;53.024;8.630;2022-10-03T17:05:39;17.10;99.90
17938;DHT22;16051;53.024;8.630;2022-10-03T17:09:48;17.00;99.90
17938;DHT22;16051;53.024;8.630;2022-10-03T17:13:54;16.90;99.90
17938;DHT22;16051;53.024;8.630;2022-10-03T17:18:12;16.70;99.90
17938;DHT22;16051;53.024;8.630;2022-10-03T17:22:23;16.60;99.90
17938;DHT22;16051;53.024;8.630;2022-10-03T17:26:34;16.50;99.90
17938;DHT22;16051;53.024;8.630;2022-10-03T17:30:51;16.40;99.90
17938;DHT22;16051;53.024;8.630;2022-10-03T17:35:01;16.30;99.90
17938;DHT22;16051;53.024;8.630;2022-10-03T17:39:40;16.20;99.90
17938;DHT22;16051;53.024;8.630;2022-10-03T17:44:16;16.10;99.90
17938;DHT22;16051;53.024;8.630;2022-10-03T17:48:30;16.00;99.90
17938;DHT22;16051;53.024;8.630;2022-10-03T17:52:39;15.90;99.90
17938;DHT22;16051;53.024;8.630;2022-10-03T17:56:48;15.80;99.90
17938;DHT22;16051;53.024;8.630;2022-10-03T18:05:40;15.60;99.90
17938;DHT22;16051;53.024;8.630;2022-10-03T18:10:05;15.50;99.90
17938;DHT22;16051;53.024;8.630;2022-10-03T18:14:30;15.50;99.90
17938;DHT22;16051;53.024;8.630;2022-10-03T18:19:08;15.40;99.90
17938;DHT22;16051;53.024;8.630;2022-10-03T18:23:46;15.30;99.90
17938;DHT22;16051;53.024;8.630;2022-10-03T18:28:12;15.10;99.90
17938;DHT22;16051;53.024;8.630;2022-10-03T18:32:21;15.00;99.90
17938;DHT22;16051;53.024;8.630;2022-10-03T18:36:30;15.00;99.90
17938;DHT22;16051;53.024;8.630;2022-10-03T18:40:49;14.90;99.90
17938;DHT22;16051;53.024;8.630;2022-10-03T18:45:16;14.80;99.90
17938;DHT22;16051;53.024;8.630;2022-10-03T18:49:24;14.80;99.90
17938;DHT22;16051;53.024;8.630;2022-10-03T18:53:38;14.70;99.90
17938;DHT22;16051;53.024;8.630;2022-10-03T18:57:58;14.70;99.90
17938;DHT22;16051;53.024;8.630;2022-10-03T19:02:15;14.60;99.90
17938;DHT22;16051;53.024;8.630;2022-10-03T19:06:27;14.50;99.90
17938;DHT22;16051;53.024;8.630;2022-10-03T19:10:37;14.50;99.90
17938;DHT22;16051;53.024;8.630;2022-10-03T19:14:55;14.40;99.90
17938;DHT22;16051;53.024;8.630;2022-10-03T19:19:21;14.40;99.90
17938;DHT22;16051;53.024;8.630;2022-10-03T19:23:34;14.30;99.90
17938;DHT22;16051;53.024;8.630;2022-10-03T19:27:43;14.30;99.90
17938;DHT22;16051;53.024;8.630;2022-10-03T19:31:58;14.20;99.90
17938;DHT22;16051;53.024;8.630;2022-10-03T19:36:15;14.10;99.90
17938;DHT22;16051;53.024;8.630;2022-10-03T19:40:31;14.10;99.90
17938;DHT22;16051;53.024;8.630;2022-10-03T19:44:55;14.00;99.90
17938;DHT22;16051;53.024;8.630;2022-10-03T19:49:17;13.80;99.90
17938;DHT22;16051;53.024;8.630;2022-10-03T19:53:28;13.80;99.90
17938;DHT22;16051;53.024;8.630;2022-10-03T19:57:39;13.70;99.90
17938;DHT22;16051;53.024;8.630;2022-10-03T20:01:55;13.70;99.90
17938;DHT22;16051;53.024;8.630;2022-10-03T20:06:00;13.60;99.90
17938;DHT22;16051;53.024;8.630;2022-10-03T20:14:40;13.40;99.90
17938;DHT22;16051;53.024;8.630;2022-10-03T20:18:45;13.40;99.90
17938;DHT22;16051;53.024;8.630;2022-10-03T20:23:10;13.30;99.90
17938;DHT22;16051;53.024;8.630;2022-10-03T20:27:29;13.30;99.90
17938;DHT22;16051;53.024;8.630;2022-10-03T20:31:36;13.20;99.90
17938;DHT22;16051;53.024;8.630;2022-10-03T20:35:47;13.20;99.90
17938;DHT22;16051;53.024;8.630;2022-10-03T20:40:05;13.20;99.90
17938;DHT22;16051;53.024;8.630;2022-10-03T20:44:22;13.10;99.90
17938;DHT22;16051;53.024;8.630;2022-10-03T20:48:34;13.10;99.90
17938;DHT22;16051;53.024;8.630;2022-10-03T20:52:49;13.00;99.90
17938;DHT22;16051;53.024;8.630;2022-10-03T20:56:58;13.00;99.90
17938;DHT22;16051;53.024;8.630;2022-10-03T21:01:08;12.90;99.90
17938;DHT22;16051;53.024;8.630;2022-10-03T21:05:21;12.90;99.90
17938;DHT22;16051;53.024;8.630;2022-10-03T21:09:38;12.90;99.90
17938;DHT22;16051;53.024;8.630;2022-10-03T21:13:48;12.80;99.90
17938;DHT22;16051;53.024;8.630;2022-10-03T21:17:55;12.80;99.90
17938;DHT22;16051;53.024;8.630;2022-10-03T21:22:01;12.80;99.90
17938;DHT22;16051;53.024;8.630;2022-10-03T21:26:07;12.70;99.90
17938;DHT22;16051;53.024;8.630;2022-10-03T21:30:17;12.70;99.90
17938;DHT22;16051;53.024;8.630;2022-10-03T21:34:28;12.70;99.90
17938;DHT22;16051;53.024;8.630;2022-10-03T21:38:41;12.70;99.90
17938;DHT22;16051;53.024;8.630;2022-10-03T21:42:53;12.70;99.90
17938;DHT22;16051;53.024;8.630;2022-10-03T21:47:16;12.60;99.90
17938;DHT22;16051;53.024;8.630;2022-10-03T21:51:28;12.60;99.90
17938;DHT22;16051;53.024;8.630;2022-10-03T21:55:48;12.50;99.90
17938;DHT22;16051;53.024;8.630;2022-10-03T22:00:10;12.50;99.90
17938;DHT22;16051;53.024;8.630;2022-10-03T22:04:22;12.50;99.90
17938;DHT22;16051;53.024;8.630;2022-10-03T22:08:32;12.40;99.90
17938;DHT22;16051;53.024;8.630;2022-10-03T22:12:41;12.30;99.90
17938;DHT22;16051;53.024;8.630;2022-10-03T22:16:53;12.30;99.90
17938;DHT22;16051;53.024;8.630;2022-10-03T22:21:07;12.20;99.90
17938;DHT22;16051;53.024;8.630;2022-10-03T22:25:50;12.20;99.90
17938;DHT22;16051;53.024;8.630;2022-10-03T22:30:03;12.20;99.90
17938;DHT22;16051;53.024;8.630;2022-10-03T22:34:17;12.10;99.90
17938;DHT22;16051;53.024;8.630;2022-10-03T22:38:33;12.10;99.90
17938;DHT22;16051;53.024;8.630;2022-10-03T22:42:39;12.10;99.90
17938;DHT22;16051;53.024;8.630;2022-10-03T22:46:47;12.00;99.90
17938;DHT22;16051;53.024;8.630;2022-10-03T22:50:58;12.00;99.90
17938;DHT22;16051;53.024;8.630;2022-10-03T22:55:04;12.00;99.90
17938;DHT22;16051;53.024;8.630;2022-10-03T22:59:12;12.00;99.90
17938;DHT22;16051;53.024;8.630;2022-10-03T23:03:22;12.00;99.90
17938;DHT22;16051;53.024;8.630;2022-10-03T23:07:51;12.00;99.90
17938;DHT22;16051;53.024;8.630;2022-10-03T23:12:10;12.00;99.90
17938;DHT22;16051;53.024;8.630;2022-10-03T23:16:28;12.00;99.90
17938;DHT22;16051;53.024;8.630;2022-10-03T23:21:02;12.00;99.90
17938;DHT22;16051;53.024;8.630;2022-10-03T23:25:15;11.90;99.90
17938;DHT22;16051;53.024;8.630;2022-10-03T23:29:22;12.00;99.90
17938;DHT22;16051;53.024;8.630;2022-10-03T23:33:47;12.00;99.90
17938;DHT22;16051;53.024;8.630;2022-10-03T23:37:50;12.00;99.90
17938;DHT22;16051;53.024;8.630;2022-10-03T23:41:57;12.00;99.90
17938;DHT22;16051;53.024;8.630;2022-10-03T23:46:04;12.10;99.90
17938;DHT22;16051;53.024;8.630;2022-10-03T23:50:18;12.10;99.90
17938;DHT22;16051;53.024;8.630;2022-10-03T23:54:23;12.10;99.90
17938;DHT22;16051;53.024;8.630;2022-10-03T23:58:29;12.10;99.90
